Time;durP1;ratioP1;P1;durP2;ratioP2;P2;SDS_P1;SDS_P2;PMS_P1;PMS_P2;Temp;Humidity;BMP_temperature;BMP_pressure;BME280_temperature;BME280_humidity;BME280_pressure;Samples;Min_cycle;Max_cycle;Signal;HPM_P1;HPM_P2
2022/10/20 00:01:27;;;;;;;12.03;10.30;;;16.00;99.90;;;;;;4990553;28;20772;-68
2022/10/20 00:03:54;;;;;;;12.03;9.63;;;15.90;99.90;;;;;;4997020;28;20190;-67
2022/10/20 00:06:24;;;;;;;12.07;10.77;;;15.90;99.90;;;;;;4997007;28;20440;-67
2022/10/20 00:08:50;;;;;;;12.30;10.13;;;15.90;99.90;;;;;;4995186;28;20440;-67
2022/10/20 00:11:18;;;;;;;16.50;10.43;;;15.90;99.90;;;;;;4990974;28;20464;-67
2022/10/20 00:13:46;;;;;;;12.53;10.37;;;15.90;99.90;;;;;;4980423;28;20432;-67
2022/10/20 00:16:12;;;;;;;10.07;9.07;;;15.90;99.90;;;;;;4993408;28;20461;-67
2022/10/20 00:18:38;;;;;;;19.17;10.87;;;15.90;99.90;;;;;;4993682;28;20492;-67
2022/10/20 00:21:12;;;;;;;11.70;10.47;;;15.90;99.90;;;;;;5008740;28;20784;-67
2022/10/20 00:23:38;;;;;;;12.63;9.43;;;15.90;99.90;;;;;;4991706;28;20920;-67
2022/10/20 00:26:11;;;;;;;15.10;9.63;;;15.90;99.90;;;;;;4995665;28;20436;-68
2022/10/20 00:28:37;;;;;;;12.30;9.93;;;15.90;99.90;;;;;;4993211;28;20191;-67
2022/10/20 00:31:03;;;;;;;13.53;9.10;;;15.80;99.90;;;;;;4991468;28;20440;-66
2022/10/20 00:33:29;;;;;;;14.27;9.70;;;15.80;99.90;;;;;;4993406;28;20186;-66
2022/10/20 00:35:58;;;;;;;11.27;9.30;;;15.80;99.90;;;;;;4985569;28;20456;-66
2022/10/20 00:38:24;;;;;;;12.63;10.00;;;15.80;99.90;;;;;;4988374;28;20189;-66
2022/10/20 00:40:49;;;;;;;12.30;9.70;;;15.80;99.90;;;;;;4993487;28;20442;-66
2022/10/20 00:43:16;;;;;;;12.13;9.60;;;15.80;99.90;;;;;;4993491;28;20871;-66
2022/10/20 00:45:43;;;;;;;13.77;9.77;;;15.80;99.90;;;;;;4991229;28;20193;-66
2022/10/20 00:48:19;;;;;;;17.03;10.80;;;15.80;99.90;;;;;;4999621;28;21246;-66
2022/10/20 00:50:51;;;;;;;11.57;9.40;;;15.80;99.90;;;;;;4998027;28;20433;-66
2022/10/20 00:53:18;;;;;;;11.67;9.57;;;15.80;99.90;;;;;;4995027;28;20799;-66
2022/10/20 00:55:47;;;;;;;12.00;9.10;;;15.80;99.90;;;;;;4998415;28;20432;-66
2022/10/20 00:58:13;;;;;;;11.60;9.40;;;15.80;99.90;;;;;;4993589;28;20803;-65
2022/10/20 01:00:41;;;;;;;11.50;9.53;;;15.80;99.90;;;;;;4993741;28;20562;-67
2022/10/20 01:03:14;;;;;;;10.80;9.70;;;15.80;99.90;;;;;;4995584;28;20490;-67
2022/10/20 01:05:39;;;;;;;11.30;9.80;;;15.80;99.90;;;;;;4996135;28;20443;-66
2022/10/20 01:08:05;;;;;;;11.33;9.13;;;15.80;99.90;;;;;;4996451;28;21091;-66
2022/10/20 01:10:38;;;;;;;13.03;9.50;;;15.80;99.90;;;;;;4995171;28;20188;-66
2022/10/20 01:13:17;;;;;;;12.70;8.90;;;15.80;99.90;;;;;;4993355;28;20213;-66
2022/10/20 01:15:52;;;;;;;15.30;10.47;;;15.70;99.90;;;;;;5000784;28;20444;-67
2022/10/20 01:18:39;;;;;;;15.53;10.30;;;15.70;99.90;;;;;;4997141;28;20440;-66
2022/10/20 01:21:45;;;;;;;11.20;10.07;;;15.70;99.90;;;;;;4998076;28;20508;-66
2022/10/20 01:24:33;;;;;;;11.73;10.10;;;15.70;99.90;;;;;;4993611;28;21316;-66
2022/10/20 01:26:58;;;;;;;12.77;10.70;;;15.70;99.90;;;;;;4996784;28;20452;-66
2022/10/20 01:29:40;;;;;;;11.13;9.97;;;15.70;99.90;;;;;;4998852;28;20861;-66
2022/10/20 01:32:11;;;;;;;15.10;9.83;;;15.70;99.90;;;;;;4996552;28;20710;-66
2022/10/20 01:34:55;;;;;;;12.87;10.00;;;15.70;99.90;;;;;;5000033;28;20478;-66
2022/10/20 01:37:26;;;;;;;13.13;10.07;;;15.70;99.90;;;;;;4999453;28;20902;-66
2022/10/20 01:40:30;;;;;;;13.63;10.77;;;15.70;99.90;;;;;;5000871;28;21199;-66
2022/10/20 01:43:02;;;;;;;11.73;9.00;;;15.70;99.90;;;;;;4925498;29;20979;-66
2022/10/20 01:45:31;;;;;;;14.33;10.30;;;15.70;99.90;;;;;;4986357;28;20441;-66
2022/10/20 01:47:59;;;;;;;12.80;9.30;;;15.70;99.90;;;;;;5003911;28;20525;-66
2022/10/20 01:50:25;;;;;;;12.00;10.70;;;15.70;99.90;;;;;;4998719;28;20463;-66
2022/10/20 01:52:56;;;;;;;12.10;9.70;;;15.70;99.90;;;;;;4999165;28;20581;-66
2022/10/20 01:55:22;;;;;;;15.23;10.60;;;15.70;99.90;;;;;;4997563;28;20788;-66
2022/10/20 01:58:01;;;;;;;17.20;10.23;;;15.70;99.90;;;;;;4989217;28;20439;-66
2022/10/20 02:00:27;;;;;;;14.13;9.77;;;15.70;99.90;;;;;;4996814;28;20217;-67
2022/10/20 02:02:52;;;;;;;11.27;9.83;;;15.70;99.90;;;;;;4999648;28;20949;-66
2022/10/20 02:05:36;;;;;;;14.00;10.07;;;15.70;99.90;;;;;;4983641;28;20441;-65
2022/10/20 02:08:14;;;;;;;12.17;10.83;;;15.70;99.90;;;;;;4996254;28;20185;-66
2022/10/20 02:10:51;;;;;;;11.57;10.07;;;15.70;99.90;;;;;;4980411;28;20471;-66
2022/10/20 02:13:20;;;;;;;11.97;10.67;;;15.70;99.90;;;;;;4998113;28;20507;-65
2022/10/20 02:15:50;;;;;;;12.00;10.33;;;15.70;99.90;;;;;;5001006;28;20978;-66
2022/10/20 02:18:23;;;;;;;12.10;10.00;;;15.70;99.90;;;;;;5001995;28;20444;-67
2022/10/20 02:20:52;;;;;;;11.83;10.37;;;15.70;99.90;;;;;;4998333;28;21026;-66
2022/10/20 02:23:18;;;;;;;12.30;10.40;;;15.80;99.90;;;;;;4998942;28;20526;-67
2022/10/20 02:25:47;;;;;;;17.67;9.83;;;15.80;99.90;;;;;;4995192;28;20494;-66
2022/10/20 02:28:17;;;;;;;11.80;9.40;;;15.80;99.90;;;;;;4996819;28;20949;-67
2022/10/20 02:30:44;;;;;;;12.73;10.10;;;15.80;99.90;;;;;;4996291;28;20470;-67
2022/10/20 02:33:11;;;;;;;13.07;10.50;;;15.80;99.90;;;;;;4982105;28;20507;-67
2022/10/20 02:35:37;;;;;;;15.63;10.83;;;15.80;99.90;;;;;;4996277;28;20432;-66
2022/10/20 02:38:02;;;;;;;12.77;9.87;;;15.80;99.90;;;;;;4994570;28;20446;-66
2022/10/20 02:40:28;;;;;;;13.97;10.80;;;15.80;99.90;;;;;;4996353;28;20640;-66
2022/10/20 02:42:54;;;;;;;11.17;9.97;;;15.70;99.90;;;;;;5001006;28;20196;-65
2022/10/20 02:45:20;;;;;;;15.47;10.10;;;15.80;99.90;;;;;;4996194;28;20343;-66
2022/10/20 02:47:45;;;;;;;16.20;11.53;;;15.70;99.90;;;;;;5003888;28;20205;-66
2022/10/20 02:50:11;;;;;;;15.23;10.53;;;15.70;99.90;;;;;;5000411;28;20185;-67
2022/10/20 02:52:37;;;;;;;12.27;10.23;;;15.70;99.90;;;;;;4995688;28;20217;-66
2022/10/20 02:55:04;;;;;;;14.10;10.37;;;15.70;99.90;;;;;;4996422;28;20186;-67
2022/10/20 02:57:30;;;;;;;13.40;10.10;;;15.70;99.90;;;;;;4997603;28;20205;-66
2022/10/20 02:59:55;;;;;;;13.07;10.57;;;15.70;99.90;;;;;;4996482;28;20490;-67
2022/10/20 03:02:21;;;;;;;14.00;10.17;;;15.70;99.90;;;;;;4998247;28;20182;-67
2022/10/20 03:04:47;;;;;;;12.67;10.47;;;15.70;99.90;;;;;;5000625;28;20193;-66
2022/10/20 03:07:13;;;;;;;13.43;9.57;;;15.70;99.90;;;;;;4994650;28;20211;-66
2022/10/20 03:09:38;;;;;;;14.73;10.50;;;15.70;99.90;;;;;;4997574;28;20189;-66
2022/10/20 03:12:04;;;;;;;12.47;10.97;;;15.70;99.90;;;;;;5011864;28;20204;-66
2022/10/20 03:14:30;;;;;;;11.10;9.90;;;15.70;99.90;;;;;;4996949;28;20243;-67
2022/10/20 03:16:55;;;;;;;12.77;9.83;;;15.70;99.90;;;;;;4999237;28;20536;-67
2022/10/20 03:19:21;;;;;;;13.03;11.10;;;15.70;99.90;;;;;;4998095;28;20177;-66
2022/10/20 03:21:48;;;;;;;18.40;11.23;;;15.70;99.90;;;;;;4998425;28;20181;-65
2022/10/20 03:24:14;;;;;;;14.63;11.17;;;15.70;99.90;;;;;;5003554;28;20270;-65
2022/10/20 03:26:39;;;;;;;14.80;10.47;;;15.70;99.90;;;;;;5000692;28;20567;-65
2022/10/20 03:29:05;;;;;;;18.90;10.67;;;15.70;99.90;;;;;;4982346;28;20282;-67
2022/10/20 03:31:31;;;;;;;17.90;11.10;;;15.70;99.90;;;;;;4998895;28;20205;-65
2022/10/20 03:33:56;;;;;;;17.17;11.70;;;15.70;99.90;;;;;;5000315;28;20181;-66
2022/10/20 03:36:22;;;;;;;13.03;10.47;;;15.70;99.90;;;;;;4998391;28;20211;-66
2022/10/20 03:38:47;;;;;;;11.70;9.77;;;15.70;99.90;;;;;;4996999;28;20189;-66
2022/10/20 03:41:13;;;;;;;14.50;10.23;;;15.70;99.90;;;;;;4999112;28;20715;-66
2022/10/20 03:43:39;;;;;;;12.10;9.97;;;15.70;99.90;;;;;;4999763;28;20181;-66
2022/10/20 03:46:07;;;;;;;11.70;10.37;;;15.70;99.90;;;;;;4984957;28;20201;-66
2022/10/20 03:48:34;;;;;;;13.80;10.13;;;15.70;99.90;;;;;;4997879;28;20421;-66
2022/10/20 03:51:01;;;;;;;12.20;10.20;;;15.70;99.90;;;;;;5001007;28;20855;-66
2022/10/20 03:53:27;;;;;;;12.10;9.50;;;15.70;99.90;;;;;;5002954;28;20419;-66
2022/10/20 03:55:52;;;;;;;11.20;9.00;;;15.70;99.90;;;;;;5001155;28;20454;-66
2022/10/20 03:58:18;;;;;;;13.03;9.87;;;15.70;99.90;;;;;;4983844;28;20819;-66
2022/10/20 04:00:44;;;;;;;13.30;9.73;;;15.70;99.90;;;;;;4995013;28;20200;-66
2022/10/20 04:03:10;;;;;;;13.80;10.17;;;15.70;99.90;;;;;;4999422;28;20197;-66
2022/10/20 04:05:36;;;;;;;12.53;9.63;;;15.70;99.90;;;;;;4985951;28;20451;-66
2022/10/20 04:08:03;;;;;;;11.07;9.60;;;15.60;99.90;;;;;;4998495;28;20208;-66
2022/10/20 04:10:29;;;;;;;12.90;9.47;;;15.60;99.90;;;;;;4997306;28;20185;-66
2022/10/20 04:12:59;;;;;;;10.40;8.90;;;15.60;99.90;;;;;;4997935;28;20483;-65
2022/10/20 04:15:25;;;;;;;13.00;9.77;;;15.60;99.90;;;;;;4984394;28;20440;-66
2022/10/20 04:17:50;;;;;;;11.57;9.63;;;15.60;99.90;;;;;;4996442;28;20507;-65
2022/10/20 04:20:16;;;;;;;12.90;10.77;;;15.60;99.90;;;;;;4997036;28;20717;-66
2022/10/20 04:22:41;;;;;;;11.30;9.50;;;15.50;99.90;;;;;;4996106;28;20303;-66
2022/10/20 04:25:07;;;;;;;17.60;11.17;;;15.50;99.90;;;;;;4994383;28;20663;-66
2022/10/20 04:27:33;;;;;;;13.87;9.87;;;15.60;99.90;;;;;;4996468;28;20216;-65
2022/10/20 04:29:59;;;;;;;12.63;9.97;;;15.50;99.90;;;;;;4983027;28;20466;-67
2022/10/20 04:32:24;;;;;;;11.13;10.00;;;15.50;99.90;;;;;;4994473;28;20212;-67
2022/10/20 04:34:50;;;;;;;11.93;10.60;;;15.50;99.90;;;;;;4996285;28;20321;-67
2022/10/20 04:37:15;;;;;;;12.53;10.17;;;15.50;99.90;;;;;;4980163;28;20318;-67
2022/10/20 04:39:41;;;;;;;17.97;11.70;;;15.50;99.90;;;;;;4998322;28;20269;-67
2022/10/20 04:42:06;;;;;;;16.03;11.40;;;15.40;99.90;;;;;;4996654;28;20219;-66
2022/10/20 04:44:32;;;;;;;11.80;10.20;;;15.40;99.90;;;;;;4997774;28;20189;-66
2022/10/20 04:46:57;;;;;;;13.50;9.57;;;15.30;99.90;;;;;;4996759;28;20217;-66
2022/10/20 04:49:23;;;;;;;15.10;11.20;;;15.30;99.90;;;;;;4999122;28;20665;-66
2022/10/20 04:51:49;;;;;;;13.00;9.67;;;15.30;99.90;;;;;;4982331;28;20205;-66
2022/10/20 04:54:14;;;;;;;15.47;9.83;;;15.30;99.90;;;;;;5001114;28;20240;-66
2022/10/20 04:56:40;;;;;;;12.40;10.20;;;15.30;99.90;;;;;;4999320;28;20276;-66
2022/10/20 04:59:05;;;;;;;18.67;12.37;;;15.30;99.90;;;;;;5001096;28;20757;-66
2022/10/20 05:01:31;;;;;;;15.20;11.33;;;15.20;99.90;;;;;;4998123;28;20602;-66
2022/10/20 05:03:57;;;;;;;16.43;9.73;;;15.30;99.90;;;;;;4992483;28;20553;-66
2022/10/20 05:06:28;;;;;;;19.87;10.87;;;15.30;99.90;;;;;;4999231;28;20244;-66
2022/10/20 05:08:59;;;;;;;15.80;11.00;;;15.30;99.90;;;;;;4997774;28;20196;-66
2022/10/20 05:11:26;;;;;;;12.77;10.03;;;15.20;99.90;;;;;;4998396;28;20826;-67
2022/10/20 05:13:52;;;;;;;14.17;11.30;;;15.20;99.90;;;;;;4999878;28;20434;-66
2022/10/20 05:18:54;;;;;;;15.30;10.53;;;15.30;99.90;;;;;;5401358;22;20505;-66
2022/10/20 05:21:23;;;;;;;12.90;11.10;;;15.30;99.90;;;;;;5019563;28;20451;-65
2022/10/20 05:23:57;;;;;;;13.30;11.10;;;15.20;99.90;;;;;;5029251;28;20450;-64
2022/10/20 05:26:24;;;;;;;12.20;10.90;;;15.20;99.90;;;;;;5027294;28;20422;-64
2022/10/20 05:28:51;;;;;;;11.57;9.80;;;15.30;99.90;;;;;;5030214;28;20438;-65
2022/10/20 05:31:19;;;;;;;15.03;11.40;;;15.30;99.90;;;;;;5023314;28;20807;-66
2022/10/20 05:33:47;;;;;;;19.87;10.90;;;15.30;99.90;;;;;;5028480;28;20422;-65
2022/10/20 05:36:15;;;;;;;13.27;10.50;;;15.20;99.90;;;;;;5025365;28;20434;-66
2022/10/20 05:38:40;;;;;;;14.30;11.07;;;15.20;99.90;;;;;;5025293;28;20491;-65
2022/10/20 05:41:14;;;;;;;13.13;10.53;;;15.20;99.90;;;;;;5025520;28;20434;-65
2022/10/20 05:43:40;;;;;;;16.27;10.60;;;15.20;99.90;;;;;;5025239;28;20489;-65
2022/10/20 05:46:07;;;;;;;12.60;10.60;;;15.20;99.90;;;;;;5026706;28;20952;-66
2022/10/20 05:48:33;;;;;;;13.03;11.07;;;15.20;99.90;;;;;;5025932;28;20191;-66
2022/10/20 05:51:18;;;;;;;13.40;10.80;;;15.20;99.90;;;;;;5023851;28;20433;-66
2022/10/20 05:53:44;;;;;;;13.63;10.80;;;15.20;99.90;;;;;;5022749;28;20442;-66
2022/10/20 05:56:15;;;;;;;14.47;10.63;;;15.20;99.90;;;;;;5020014;28;20446;-66
2022/10/20 05:58:42;;;;;;;17.60;11.00;;;15.10;99.90;;;;;;5017867;28;20605;-66
2022/10/20 06:01:10;;;;;;;14.67;10.37;;;15.10;99.90;;;;;;5018638;28;20443;-65
2022/10/20 06:03:36;;;;;;;14.23;10.87;;;15.10;99.90;;;;;;5019697;28;21457;-65
2022/10/20 06:06:03;;;;;;;13.00;10.73;;;15.10;99.90;;;;;;5018896;28;20526;-65
2022/10/20 06:08:31;;;;;;;14.00;9.70;;;15.10;99.90;;;;;;5020827;28;20647;-65
2022/10/20 06:11:03;;;;;;;17.23;10.60;;;15.10;99.90;;;;;;5018905;28;20800;-65
2022/10/20 06:13:31;;;;;;;14.93;11.47;;;15.10;99.90;;;;;;5012853;28;20546;-66
2022/10/20 06:16:01;;;;;;;18.17;10.00;;;15.10;99.90;;;;;;5017186;28;20427;-66
2022/10/20 06:18:27;;;;;;;13.20;11.10;;;15.10;99.90;;;;;;5016463;28;20854;-65
2022/10/20 06:21:03;;;;;;;14.63;11.13;;;15.10;99.90;;;;;;5015287;28;20927;-66
2022/10/20 06:23:29;;;;;;;13.90;10.50;;;15.00;99.90;;;;;;5016857;28;20192;-65
2022/10/20 06:25:59;;;;;;;14.07;11.43;;;15.00;99.90;;;;;;5030697;28;20455;-65
2022/10/20 06:28:25;;;;;;;16.47;11.20;;;14.90;99.90;;;;;;5019100;28;20208;-66
2022/10/20 06:30:50;;;;;;;15.93;11.60;;;14.90;99.90;;;;;;5016220;28;20797;-66
2022/10/20 06:33:16;;;;;;;14.13;10.53;;;14.90;99.90;;;;;;5022461;28;20780;-66
2022/10/20 06:35:42;;;;;;;13.83;10.90;;;14.90;99.90;;;;;;5018239;28;22059;-65
2022/10/20 06:38:07;;;;;;;15.00;10.07;;;15.00;99.90;;;;;;5019098;28;20209;-66
2022/10/20 06:40:33;;;;;;;15.93;10.10;;;15.00;99.90;;;;;;5009654;28;20311;-65
2022/10/20 06:42:58;;;;;;;13.60;10.30;;;15.00;99.90;;;;;;5015447;28;20192;-65
2022/10/20 06:45:24;;;;;;;12.13;10.00;;;15.00;99.90;;;;;;5013413;28;20181;-65
2022/10/20 06:47:49;;;;;;;13.13;9.87;;;15.00;99.90;;;;;;5015343;28;20743;-66
2022/10/20 06:50:15;;;;;;;11.53;10.30;;;15.00;99.90;;;;;;5016469;28;20180;-66
2022/10/20 06:52:41;;;;;;;12.20;9.30;;;15.00;99.90;;;;;;5016499;28;20209;-66
2022/10/20 06:55:07;;;;;;;14.03;10.53;;;15.00;99.90;;;;;;5011898;28;20192;-66
2022/10/20 06:57:32;;;;;;;16.70;11.00;;;15.00;99.90;;;;;;5018176;28;20177;-67
2022/10/20 06:59:58;;;;;;;17.97;10.40;;;15.10;99.90;;;;;;5022280;28;20430;-67
2022/10/20 07:02:23;;;;;;;13.00;9.40;;;15.10;99.90;;;;;;5018138;28;20184;-67
2022/10/20 07:04:49;;;;;;;13.40;9.60;;;15.10;99.90;;;;;;5016098;28;20687;-66
2022/10/20 07:07:15;;;;;;;12.60;9.70;;;15.10;99.90;;;;;;5019990;28;20214;-67
2022/10/20 07:09:40;;;;;;;18.67;11.40;;;15.10;99.90;;;;;;5020444;28;20204;-67
2022/10/20 07:12:06;;;;;;;21.33;12.40;;;15.20;99.90;;;;;;5017797;28;20200;-67
2022/10/20 07:14:36;;;;;;;13.20;10.23;;;15.20;99.90;;;;;;5025078;28;20188;-67
2022/10/20 07:17:02;;;;;;;15.30;11.77;;;15.20;99.90;;;;;;5020312;28;20259;-67
2022/10/20 07:19:28;;;;;;;19.40;11.30;;;15.20;99.90;;;;;;5019045;28;20462;-67
2022/10/20 07:21:54;;;;;;;17.37;10.37;;;15.30;99.90;;;;;;5022100;28;20438;-68
2022/10/20 07:24:19;;;;;;;17.50;10.80;;;15.30;99.90;;;;;;5021261;28;20188;-67
2022/10/20 07:26:45;;;;;;;19.97;10.80;;;15.40;99.90;;;;;;5017142;28;20277;-67
2022/10/20 07:29:12;;;;;;;19.33;10.90;;;15.40;99.90;;;;;;5014271;28;20209;-68
2022/10/20 07:31:43;;;;;;;17.83;10.37;;;15.50;99.90;;;;;;5017936;28;20296;-68
2022/10/20 07:34:11;;;;;;;15.87;10.87;;;15.50;99.90;;;;;;5015277;28;20579;-67
2022/10/20 07:36:38;;;;;;;14.60;9.90;;;15.50;99.90;;;;;;5021350;28;20474;-67
2022/10/20 07:39:05;;;;;;;14.30;10.30;;;15.50;99.90;;;;;;5019011;28;20443;-66
2022/10/20 07:41:31;;;;;;;14.30;8.83;;;15.50;99.90;;;;;;5019004;28;20545;-67
2022/10/20 07:43:56;;;;;;;12.27;10.70;;;15.60;99.90;;;;;;5015799;28;22811;-68
2022/10/20 07:46:22;;;;;;;18.60;10.70;;;15.60;99.90;;;;;;5016793;28;20216;-68
2022/10/20 07:48:48;;;;;;;14.17;10.90;;;15.60;99.90;;;;;;5021686;28;21052;-67
2022/10/20 07:51:24;;;;;;;16.00;10.33;;;15.60;99.90;;;;;;5003453;28;20478;-67
2022/10/20 07:54:11;;;;;;;16.90;10.77;;;15.70;99.90;;;;;;5021962;28;20207;-67
2022/10/20 07:56:39;;;;;;;17.60;10.80;;;15.70;99.90;;;;;;5021566;28;20539;-66
2022/10/20 07:59:06;;;;;;;18.20;11.17;;;15.70;99.90;;;;;;5020600;28;20481;-65
2022/10/20 08:01:32;;;;;;;14.67;10.37;;;15.70;99.90;;;;;;5012876;28;20600;-65
2022/10/20 08:03:58;;;;;;;16.03;10.90;;;15.70;99.90;;;;;;5016747;28;20553;-66
2022/10/20 08:06:24;;;;;;;18.03;11.80;;;15.70;99.90;;;;;;5017822;28;20588;-65
2022/10/20 08:08:50;;;;;;;20.20;11.10;;;15.80;99.90;;;;;;5016575;28;20216;-65
2022/10/20 08:11:16;;;;;;;12.53;10.20;;;15.80;99.90;;;;;;5018328;28;20443;-65
2022/10/20 08:13:42;;;;;;;13.90;10.50;;;15.80;99.90;;;;;;5014013;28;20203;-65
2022/10/20 08:16:10;;;;;;;15.30;11.43;;;15.90;99.90;;;;;;5013027;28;20443;-66
2022/10/20 08:18:36;;;;;;;20.63;12.57;;;15.90;99.90;;;;;;5012441;28;20224;-66
2022/10/20 08:21:11;;;;;;;15.47;10.70;;;15.90;99.90;;;;;;5017917;28;20469;-64
2022/10/20 08:23:41;;;;;;;13.67;11.10;;;15.90;99.90;;;;;;5012746;28;20473;-67
2022/10/20 08:26:08;;;;;;;31.00;11.40;;;16.00;99.90;;;;;;5015973;28;20896;-67
2022/10/20 08:28:34;;;;;;;21.13;10.97;;;16.00;99.90;;;;;;5017512;28;21171;-67
2022/10/20 08:31:06;;;;;;;14.40;11.03;;;16.00;99.90;;;;;;5019459;28;20435;-68
2022/10/20 08:33:33;;;;;;;17.90;11.50;;;16.00;99.90;;;;;;5011745;28;21213;-68
2022/10/20 08:36:07;;;;;;;18.50;11.67;;;16.00;99.90;;;;;;5012324;28;20448;-67
2022/10/20 08:38:33;;;;;;;16.57;11.47;;;16.10;99.90;;;;;;5013513;28;20759;-66
2022/10/20 08:41:01;;;;;;;15.30;12.30;;;16.20;99.90;;;;;;5014549;28;20450;-66
2022/10/20 08:43:29;;;;;;;11.73;10.50;;;16.30;99.90;;;;;;5014775;28;20472;-66
2022/10/20 08:45:54;;;;;;;12.37;11.00;;;16.30;99.90;;;;;;5013629;28;20435;-66
2022/10/20 08:48:24;;;;;;;16.40;11.03;;;16.40;99.90;;;;;;5014752;28;20489;-66
2022/10/20 08:50:52;;;;;;;18.07;12.70;;;16.40;99.90;;;;;;5018101;28;20187;-66
2022/10/20 08:53:20;;;;;;;13.80;11.00;;;16.40;99.90;;;;;;5012009;28;20459;-68
2022/10/20 08:55:46;;;;;;;16.57;12.27;;;16.40;99.90;;;;;;5014757;28;20462;-67
2022/10/20 08:58:15;;;;;;;13.60;10.73;;;16.30;99.90;;;;;;5009313;28;20461;-68
2022/10/20 09:00:42;;;;;;;14.60;11.53;;;16.40;99.90;;;;;;5018766;28;20449;-67
2022/10/20 09:03:18;;;;;;;30.17;17.23;;;16.50;99.90;;;;;;5017159;28;20582;-69
2022/10/20 09:05:47;;;;;;;18.43;15.70;;;16.50;99.90;;;;;;5017499;28;20439;-68
2022/10/20 09:08:13;;;;;;;20.33;11.90;;;16.60;99.90;;;;;;5008440;28;20485;-66
2022/10/20 09:10:48;;;;;;;11.60;10.13;;;16.50;99.90;;;;;;5018298;28;21319;-69
2022/10/20 09:13:24;;;;;;;13.77;11.10;;;16.60;99.90;;;;;;5020547;28;20203;-67
2022/10/20 09:15:52;;;;;;;15.00;11.67;;;16.70;99.90;;;;;;5021293;28;20449;-67
2022/10/20 09:18:19;;;;;;;14.50;11.60;;;16.60;99.90;;;;;;5017755;28;20463;-69
2022/10/20 09:21:00;;;;;;;20.00;11.80;;;16.70;99.90;;;;;;5018144;28;20473;-68
2022/10/20 09:23:39;;;;;;;14.83;11.30;;;16.70;99.90;;;;;;5022898;28;20493;-67
2022/10/20 09:26:21;;;;;;;18.70;12.13;;;16.70;99.90;;;;;;5018986;28;20799;-67
2022/10/20 09:28:49;;;;;;;14.90;11.30;;;16.80;99.90;;;;;;5021101;28;20443;-67
2022/10/20 09:31:32;;;;;;;13.70;10.60;;;16.90;99.90;;;;;;5019531;28;21056;-66
2022/10/20 09:33:58;;;;;;;16.23;12.50;;;17.00;99.90;;;;;;5015590;28;20648;-69
2022/10/20 09:36:32;;;;;;;14.90;11.77;;;17.10;99.90;;;;;;5024241;28;21049;-67
2022/10/20 09:38:59;;;;;;;13.20;11.73;;;17.20;99.90;;;;;;5022589;28;21112;-67
2022/10/20 09:41:29;;;;;;;14.70;12.00;;;17.20;99.90;;;;;;5021393;28;20423;-67
2022/10/20 09:43:59;;;;;;;20.23;11.73;;;17.00;99.90;;;;;;5019374;28;20529;-67
2022/10/20 09:46:28;;;;;;;16.70;12.33;;;17.00;99.90;;;;;;5021816;28;20431;-68
2022/10/20 09:48:55;;;;;;;12.63;10.67;;;17.00;99.90;;;;;;5023808;28;20980;-67
2022/10/20 09:51:23;;;;;;;16.47;12.20;;;17.20;99.90;;;;;;5024011;28;20450;-68
2022/10/20 09:53:49;;;;;;;17.20;11.57;;;17.30;99.90;;;;;;5019016;28;20435;-68
2022/10/20 09:56:43;;;;;;;13.77;11.43;;;17.30;99.90;;;;;;5022716;28;20538;-68
2022/10/20 09:59:26;;;;;;;15.23;11.40;;;17.20;99.90;;;;;;5022830;28;20669;-68
2022/10/20 10:01:58;;;;;;;16.40;11.80;;;17.30;99.90;;;;;;5021446;28;20439;-68
2022/10/20 10:04:38;;;;;;;14.40;12.27;;;17.30;99.90;;;;;;5018946;28;20856;-67
2022/10/20 10:07:25;;;;;;;12.83;10.37;;;17.30;99.90;;;;;;5018920;28;20435;-68
2022/10/20 10:10:00;;;;;;;15.33;10.50;;;17.40;99.90;;;;;;5021604;28;20606;-67
2022/10/20 10:12:29;;;;;;;13.73;11.00;;;17.60;99.90;;;;;;5018111;28;20521;-67
2022/10/20 10:14:57;;;;;;;14.57;12.13;;;17.50;99.90;;;;;;5021249;28;20462;-67
2022/10/20 10:17:35;;;;;;;15.80;10.60;;;17.70;99.90;;;;;;5021442;28;20514;-67
2022/10/20 10:20:04;;;;;;;13.33;10.20;;;17.80;99.90;;;;;;5009892;28;20455;-67
2022/10/20 10:22:34;;;;;;;12.03;10.43;;;17.80;99.90;;;;;;5018280;28;20450;-66
2022/10/20 10:25:00;;;;;;;14.77;10.47;;;17.80;99.90;;;;;;5016863;28;20446;-67
2022/10/20 10:27:25;;;;;;;16.90;10.73;;;17.90;99.90;;;;;;5015098;28;20872;-67
2022/10/20 10:29:52;;;;;;;12.00;9.97;;;17.90;99.90;;;;;;5012522;28;20458;-66
2022/10/20 10:32:24;;;;;;;22.13;11.23;;;17.80;99.90;;;;;;5017537;28;20366;-66
2022/10/20 10:35:17;;;;;;;13.57;10.60;;;17.80;99.90;;;;;;5016763;28;20534;-66
2022/10/20 10:37:43;;;;;;;16.67;11.27;;;17.80;99.90;;;;;;5015437;28;20534;-67
2022/10/20 10:40:18;;;;;;;18.23;13.57;;;17.70;99.90;;;;;;5015421;28;20534;-66
2022/10/20 10:43:07;;;;;;;14.13;11.87;;;17.60;99.90;;;;;;5014932;28;20544;-66
2022/10/20 10:45:44;;;;;;;14.60;11.80;;;17.60;99.90;;;;;;5011460;28;20486;-67
2022/10/20 10:48:33;;;;;;;16.37;11.20;;;17.40;99.90;;;;;;5015764;28;21012;-66
2022/10/20 10:51:23;;;;;;;14.30;11.13;;;17.30;99.90;;;;;;5012126;28;20807;-66
2022/10/20 10:54:11;;;;;;;16.97;11.67;;;17.40;99.90;;;;;;5011015;28;20830;-66
2022/10/20 10:56:50;;;;;;;16.87;11.83;;;17.40;99.90;;;;;;5022774;28;20963;-65
2022/10/20 10:59:19;;;;;;;13.00;10.77;;;17.40;99.90;;;;;;5020728;28;21518;-66
2022/10/20 11:01:59;;;;;;;17.50;11.23;;;17.50;99.90;;;;;;5025092;28;20434;-66
2022/10/20 11:04:37;;;;;;;12.80;10.97;;;17.60;99.90;;;;;;5014231;28;20509;-66
2022/10/20 11:07:28;;;;;;;15.07;10.57;;;17.70;99.90;;;;;;5015279;28;20484;-67
2022/10/20 11:10:21;;;;;;;18.83;11.17;;;17.80;99.90;;;;;;5016871;28;20503;-65
2022/10/20 11:13:00;;;;;;;24.70;12.00;;;17.80;99.90;;;;;;5015053;28;20511;-66
2022/10/20 11:15:59;;;;;;;13.10;10.13;;;17.80;99.90;;;;;;5017103;28;20664;-66
2022/10/20 11:19:06;;;;;;;15.70;9.07;;;17.80;99.90;;;;;;5020928;28;20524;-66
2022/10/20 11:22:03;;;;;;;12.67;10.80;;;17.80;99.90;;;;;;5016426;28;20435;-66
2022/10/20 11:24:31;;;;;;;13.50;11.10;;;17.90;99.90;;;;;;5032942;28;20709;-66
2022/10/20 11:27:28;;;;;;;13.83;9.90;;;17.90;99.90;;;;;;5018709;28;20438;-66
2022/10/20 11:30:07;;;;;;;17.43;9.20;;;18.00;99.90;;;;;;5013941;28;20460;-65
2022/10/20 11:33:07;;;;;;;14.47;11.23;;;18.00;99.90;;;;;;5021696;28;20458;-66
2022/10/20 11:35:48;;;;;;;14.73;10.13;;;18.00;99.90;;;;;;5017949;28;20439;-66
2022/10/20 11:38:45;;;;;;;13.53;11.20;;;18.00;99.90;;;;;;5022961;28;20992;-66
2022/10/20 11:41:38;;;;;;;13.70;11.10;;;18.00;99.90;;;;;;5025879;28;21102;-66
2022/10/20 11:44:21;;;;;;;14.03;10.87;;;18.00;99.90;;;;;;5029750;28;20432;-65
2022/10/20 11:46:53;;;;;;;14.37;10.20;;;18.00;99.90;;;;;;5029063;28;20485;-65
2022/10/20 11:49:19;;;;;;;13.77;9.30;;;18.00;99.90;;;;;;5019576;28;20814;-65
2022/10/20 11:52:03;;;;;;;14.80;10.33;;;17.90;99.90;;;;;;5017314;28;20489;-66
2022/10/20 11:54:46;;;;;;;13.20;10.77;;;17.90;99.90;;;;;;5026271;28;20176;-65
2022/10/20 11:57:49;;;;;;;14.93;10.20;;;17.90;99.90;;;;;;5016398;28;20591;-65
2022/10/20 12:00:53;;;;;;;13.03;10.30;;;17.90;99.90;;;;;;5019374;28;20530;-65
2022/10/20 12:03:40;;;;;;;13.70;10.23;;;17.90;99.90;;;;;;4995511;28;20446;-66
2022/10/20 12:06:17;;;;;;;13.40;10.03;;;18.00;99.90;;;;;;5023670;28;20466;-65
2022/10/20 12:09:09;;;;;;;13.10;8.70;;;18.00;99.90;;;;;;5025781;28;20470;-66
2022/10/20 12:12:09;;;;;;;13.63;10.50;;;18.10;99.90;;;;;;5025246;28;20901;-66
2022/10/20 12:14:40;;;;;;;10.17;9.13;;;18.10;99.90;;;;;;5025778;28;20472;-67
2022/10/20 12:17:27;;;;;;;17.23;9.70;;;18.10;99.90;;;;;;5023633;28;20487;-65
2022/10/20 12:20:18;;;;;;;23.70;10.33;;;18.10;99.90;;;;;;5023057;28;21072;-66
2022/10/20 12:22:44;;;;;;;12.60;9.40;;;18.10;99.90;;;;;;5021403;28;20447;-66
2022/10/20 12:25:09;;;;;;;15.40;9.47;;;18.10;99.90;;;;;;5023570;28;20442;-66
2022/10/20 12:27:35;;;;;;;11.87;9.47;;;18.10;99.90;;;;;;5024788;28;20212;-65
2022/10/20 12:30:36;;;;;;;13.63;9.40;;;18.20;99.90;;;;;;5024711;28;20211;-66
2022/10/20 12:33:16;;;;;;;13.00;9.30;;;18.30;99.90;;;;;;5022692;28;20303;-65
2022/10/20 12:36:11;;;;;;;12.20;9.63;;;18.30;99.90;;;;;;5021676;28;20427;-65
2022/10/20 12:38:36;;;;;;;20.00;11.83;;;18.30;99.90;;;;;;5020964;28;20442;-66
2022/10/20 12:41:03;;;;;;;15.43;10.93;;;18.30;99.90;;;;;;5015873;28;20541;-66
2022/10/20 12:43:36;;;;;;;16.10;11.93;;;18.40;99.90;;;;;;5022023;28;21584;-65
2022/10/20 12:46:26;;;;;;;15.50;9.43;;;18.40;99.90;;;;;;5027047;28;20506;-65
2022/10/20 12:48:57;;;;;;;16.27;11.20;;;18.50;99.90;;;;;;5015484;28;20557;-65
2022/10/20 12:51:37;;;;;;;13.60;10.47;;;18.50;99.90;;;;;;5020337;28;20510;-65
2022/10/20 12:54:25;;;;;;;13.10;10.50;;;18.50;99.90;;;;;;5025008;28;20402;-65